• Join FlightAware (Why Join?)
  • Login
  • US Flag 
04:53PM EDT


 

Airport Tracker/Info


-or-


 

Live Flight TrackerFlight Track Log ✈ ASQ5941 ✈ 11-Jul-2013 ✈ KAVP - KORD

Flight Track Log - Related Links

Times and Time Zones

All times are in EDT time to prevent confusion due to time zone crossing. See the ASQ5941 flight status page for this flight to view local times or setup timezone preferences in your user account.

Time Position Orientation Groundspeed Altitude Reporting Facility
EDT Latitude Longitude Course Direction KTS MPH feet Rate Location/Type
05:04PM 41.4178 -75.6842 16° North 177 204 4,200  Level New York Center
05:05PM 41.4742 -75.7297 329° Northwest 184 212 5,700 1,680 Climbing New York Center
05:06PM 41.4373 -75.9579 304° West  Level FlightAware Approximate
05:06PM 41.5344 -75.7786 329° Northwest 216 249 7,700  Level New York Center
05:07PM 41.4902 -76.0480 315° West  Level FlightAware Approximate
05:07PM 41.5753 -75.8483 308° West 250 288 9,500  Level New York Center
05:08PM 41.5490 -76.1319 312° West  Level FlightAware Approximate
05:08PM 41.6067 -75.9422 294° West 271 312 10,800  Level New York Center
05:09PM 41.6428 -76.0700 291° West 314 361 11,500 840 Climbing New York Center
05:10PM 41.6747 -76.1892 290° West 337 388 12,500 1,020 Climbing New York Center
05:11PM 41.7072 -76.3000 291° West 356 410 13,600 1,080 Climbing New York Center
05:12PM 41.7411 -76.4225 290° West 356 410 14,700 1,140 Climbing New York Center
05:13PM 41.7803 -76.5592 291° West 356 410 15,900 1,140 Climbing New York Center
05:14PM 41.8103 -76.6703 290° West 356 410 17,000 1,080 Climbing New York Center
05:15PM 41.8433 -76.7958 290° West 356 410 18,100 1,080 Climbing New York Center
05:17PM 41.8997 -76.9897 291° West 364 419 19,800 1,080 Climbing Cleveland Center
05:18PM 41.9325 -77.1136 290° West 364 419 20,900 1,080 Climbing Cleveland Center
05:19PM 41.9656 -77.2375 290° West 364 419 22,000 1,080 Climbing Cleveland Center
05:20PM 41.9983 -77.3614 290° West 364 419 23,100 1,080 Climbing Cleveland Center
05:21PM 42.0331 -77.4883 290° West 364 419 24,200 1,140 Climbing Cleveland Center
05:22PM 42.0656 -77.6156 289° West 364 419 25,400 1,080 Climbing Cleveland Center
05:23PM 42.1000 -77.7369 291° West 359 413 26,400 900 Climbing Cleveland Center
05:24PM 42.1322 -77.8644 289° West 359 413 27,300 900 Climbing Cleveland Center
05:25PM 42.1642 -77.9892 289° West 359 413 28,300 900 Climbing Cleveland Center
05:26PM 42.1961 -78.1139 289° West 359 413 29,200 840 Climbing Cleveland Center
05:27PM 42.2300 -78.2361 291° West 359 413 30,000 360 Climbing Cleveland Center
05:28PM 42.2639 -78.3694 289° West 359 413 30,000  Level Cleveland Center
05:29PM 42.2997 -78.5086 289° West 378 435 30,100 540 Climbing Cleveland Center
05:30PM 42.3336 -78.6481 288° West 384 442 31,100 1,020 Climbing Cleveland Center
05:31PM 42.3714 -78.7928 290° West 384 442 32,200 1,140 Climbing Cleveland Center
05:32PM 42.4044 -78.9269 288° West 384 442 33,400 1,140 Climbing Cleveland Center
05:33PM 42.4375 -79.0556 289° West 379 436 34,500 1,020 Climbing Cleveland Center
05:34PM 42.4683 -79.1786 289° West 368 423 35,500 720 Climbing Cleveland Center
05:35PM 42.4928 -79.3047 285° West 355 409 36,000 240 Climbing Cleveland Center
05:36PM 42.5003 -79.4342 275° West 355 409 36,000  Level Cleveland Center
05:37PM 42.5058 -79.5692 273° West 355 409 36,000  Level Cleveland Center
05:38PM 42.5153 -79.7072 275° West 355 409 36,000  Level Cleveland Center
05:39PM 42.5225 -79.8536 274° West 368 423 36,000  Level Cleveland Center
05:40PM 42.5275 -79.9719 273° West 387 445 36,000  Level Cleveland Center
05:41PM 42.5303 -80.1353 271° West 395 455 36,000  Level Cleveland Center
05:42PM 42.5389 -80.2844 275° West 401 461 36,000  Level Cleveland Center
05:43PM 42.5436 -80.4339 273° West 401 461 36,000  Level Cleveland Center
05:44PM 42.5478 -80.5831 272° West 406 467 36,000  Level Cleveland Center
05:45PM 42.5561 -80.7325 274° West 401 461 36,000  Level Cleveland Center
05:46PM 42.5619 -80.8792 273° West 401 461 36,000  Level Cleveland Center
05:47PM 42.5656 -81.0369 272° West 394 453 36,000  Level Cleveland Center
05:48PM 42.5711 -81.1864 273° West 394 453 36,000  Level Cleveland Center
05:49PM 42.5767 -81.3275 273° West 381 438 36,000  Level Cleveland Center
05:50PM 42.5858 -81.4742 275° West 386 444 36,000  Level Cleveland Center
05:51PM 42.6139 -81.6186 285° West 391 450 36,000  Level Cleveland Center
05:52PM 42.6394 -81.7714 283° West 403 464 36,000  Level Cleveland Center
05:53PM 42.6631 -81.9072 283° West 410 472 36,000  Level Cleveland Center
05:54PM 42.6903 -82.0606 284° West 421 484 36,000  Level Cleveland Center
05:55PM 42.7192 -82.2419 282° West 433 498 36,000  Level Cleveland Center
05:56PM 42.7481 -82.4011 284° West 433 498 36,000  Level Cleveland Center
05:57PM 42.7661 -82.5658 279° West 433 498 36,000  Level Cleveland Center
05:58PM 42.7778 -82.7272 276° West 433 498 36,000  Level Cleveland Center
05:59PM 42.7894 -82.8889 276° West 433 498 36,000  Level Cleveland Center
06:00PM 42.7983 -83.0533 274° West 433 498 36,000  Level Cleveland Center
06:01PM 42.8075 -83.2122 275° West 433 498 36,000  Level Cleveland Center
06:02PM 42.8181 -83.3769 275° West 428 493 36,000  Level Cleveland Center
06:03PM 42.8286 -83.5389 275° West 428 493 36,000  Level Cleveland Center
06:04PM 42.8369 -83.7036 274° West 433 498 36,000  Level Cleveland Center
06:05PM 42.8447 -83.8708 274° West 440 506 36,000  Level Cleveland Center
06:06PM 42.8544 -84.0358 275° West 446 513 36,000  Level Cleveland Center
06:07PM 42.8619 -84.2033 274° West 446 513 36,000  Level Cleveland Center
06:08PM 42.8719 -84.3483 275° West 440 506 36,000  Level Cleveland Center
06:08PM 42.8792 -84.4769 274° West 445 512 36,000 -300 Level Chicago Center
06:09PM 42.8803 -84.6447 271° West 448 516 35,500 -1,440 Descending Chicago Center
06:10PM 42.8572 -84.8439 261° West 445 512 33,000 -1,740 Descending Chicago Center
06:11PM 42.8403 -85.0161 262° West 454 522 32,000 -540 Descending Chicago Center
06:12PM 42.8200 -85.1883 261° West 459 528 32,000  Level Chicago Center
06:13PM 42.8017 -85.3603 262° West 459 528 32,000 -360 Level Chicago Center
06:14PM 42.7800 -85.5375 261° West 468 539 31,300 -1,680 Descending Chicago Center
06:16PM 42.7478 -85.7128 256° West 474 545 28,600 -2,760 Descending Chicago Center
06:17PM 42.7156 -85.8867 256° West 470 541 25,700 -3,120 Descending Chicago Center
06:18PM 42.6778 -86.0975 256° West 475 547 22,200 -2,760 Descending Chicago Center
06:19PM 42.6478 -86.2611 256° West 451 519 20,100 -1,080 Descending Chicago Center
06:20PM 42.6189 -86.4147 256° West 426 490 20,000 -480 Descending Chicago Center
06:21PM 42.5833 -86.5697 253° West 428 493 19,100 -1,860 Descending Chicago Center
06:22PM 42.5453 -86.7231 251° West 429 494 16,200 -2,760 Descending Chicago Center
06:23PM 42.5114 -86.8692 253° West 416 479 13,500 -2,580 Descending Chicago Center
06:24PM 42.4772 -87.0014 251° West 383 441 10,900 -1,740 Descending Chicago Center
06:25PM 42.4383 -87.1578 251° West 362 417 10,000 -480 Descending Chicago Center
06:26PM 42.4056 -87.2819 250° West 360 414 10,000  Level Chicago Center
06:27PM 42.3728 -87.4106 251° West 360 414 10,000 -600 Level Chicago Center
06:29PM 42.2775 -87.5994 236° Southwest 306 352 8,200 -1,020 Descending Chicago Center
06:30PM 42.2011 -87.6800 218° Southwest 296 341 7,000 -600 Descending Chicago Center
06:31PM 42.1367 -87.7472 218° Southwest 294 338 7,000  Level Chicago Center
06:32PM 42.0908 -87.8328 234° Southwest 289 333 7,000  Level Chicago Center
06:33PM 42.1000 -87.9500 276° West 281 323 7,000  Level Chicago TRACON
06:34PM 42.1000 -88.0333 270° West 244 281 7,000 -420 Level Chicago TRACON
06:35PM 42.0833 -88.1333 257° West 236 272 6,200 -1,140 Descending Chicago TRACON
06:36PM 42.0833 -88.2167 270° West 225 259 4,800 -1,020 Descending Chicago TRACON
06:37PM 42.0308 -88.2286 190° South 205 236 4,000 -360 Descending Chicago Center
06:38PM 41.9853 -88.2039 158° South 193 222 4,100 -300 Climbing Chicago Center
06:39PM 41.9678 -88.1192 105° East 198 228 3,400 -840 Descending Chicago Center
06:40PM 41.9667 -88.0667 92° East 176 203 2,700 -1,020 Descending Chicago TRACON